createdAt,value
2022-09-01T00:01:21.336Z,2.47
2022-09-01T00:03:52.840Z,3.22
2022-09-01T00:06:24.349Z,4.00
2022-09-01T00:08:53.532Z,1.80
2022-09-01T00:11:22.702Z,2.30
2022-09-01T00:13:51.756Z,2.08
2022-09-01T00:16:21.012Z,2.03
2022-09-01T00:18:51.523Z,2.05
2022-09-01T00:21:25.050Z,1.35
2022-09-01T00:23:53.054Z,3.50
2022-09-01T00:26:21.276Z,4.90
2022-09-01T00:28:49.696Z,1.48
2022-09-01T00:31:19.992Z,2.30
2022-09-01T00:33:48.989Z,2.30
2022-09-01T00:36:17.175Z,2.20
2022-09-01T00:38:46.908Z,2.08
2022-09-01T00:41:16.428Z,2.95
2022-09-01T00:43:46.882Z,2.10
2022-09-01T00:46:20.468Z,1.80
2022-09-01T00:49:01.922Z,1.55
2022-09-01T00:51:30.531Z,2.22
2022-09-01T00:54:00.177Z,3.55
2022-09-01T00:56:28.370Z,2.40
2022-09-01T00:58:56.152Z,1.55
2022-09-01T01:01:28.000Z,2.13
2022-09-01T01:03:56.230Z,2.05
2022-09-01T01:06:31.784Z,2.15
2022-09-01T01:09:02.250Z,2.55
2022-09-01T01:11:32.415Z,4.35
2022-09-01T01:14:05.837Z,2.58
2022-09-01T01:16:36.512Z,1.75
2022-09-01T01:19:05.674Z,2.22
2022-09-01T01:21:56.741Z,2.70
2022-09-01T01:24:28.383Z,2.15
2022-09-01T01:26:59.717Z,1.70
2022-09-01T01:29:29.759Z,1.60
2022-09-01T01:31:57.680Z,3.75
2022-09-01T01:34:25.557Z,1.77
2022-09-01T01:36:54.024Z,3.22
2022-09-01T01:39:25.402Z,2.80
2022-09-01T01:41:57.051Z,2.65
2022-09-01T01:44:27.918Z,4.53
2022-09-01T01:46:58.413Z,2.92
2022-09-01T01:49:29.149Z,2.25
2022-09-01T01:51:58.058Z,3.88
2022-09-01T01:54:32.444Z,3.50
2022-09-01T01:57:05.327Z,1.08
2022-09-01T01:59:41.111Z,1.17
2022-09-01T02:02:09.822Z,1.17
2022-09-01T02:04:40.111Z,1.42
2022-09-01T02:07:12.004Z,2.88
2022-09-01T02:09:44.034Z,2.65
2022-09-01T02:12:15.622Z,1.92
2022-09-01T02:14:44.041Z,1.48
2022-09-01T02:17:12.111Z,1.95
2022-09-01T02:19:43.309Z,2.85
2022-09-01T02:22:11.642Z,1.15
2022-09-01T02:24:46.483Z,3.08
2022-09-01T02:27:22.003Z,1.75
2022-09-01T02:29:55.470Z,1.75
2022-09-01T02:32:23.313Z,1.45
2022-09-01T02:34:53.826Z,1.45
2022-09-01T02:37:25.436Z,2.58
2022-09-01T02:39:53.945Z,3.28
2022-09-01T02:42:27.637Z,4.00
2022-09-01T02:44:56.047Z,2.42
2022-09-01T02:47:28.119Z,1.67
2022-09-01T02:49:58.590Z,4.78
2022-09-01T02:52:29.786Z,3.38
2022-09-01T02:54:57.858Z,3.10
2022-09-01T02:57:29.544Z,2.33
2022-09-01T03:00:00.155Z,2.63
2022-09-01T03:02:28.871Z,1.63
2022-09-01T03:04:57.560Z,3.50
2022-09-01T03:07:27.013Z,2.53
2022-09-01T03:09:54.798Z,2.15
2022-09-01T03:12:22.839Z,2.53
2022-09-01T03:14:52.095Z,1.50
2022-09-01T03:17:21.720Z,4.05
2022-09-01T03:19:51.840Z,3.58
2022-09-01T03:22:19.580Z,4.00
2022-09-01T03:24:47.393Z,1.70
2022-09-01T03:27:15.253Z,3.67
2022-09-01T03:29:43.025Z,2.33
2022-09-01T03:32:14.654Z,2.97
2022-09-01T03:34:42.507Z,2.30
2022-09-01T03:37:12.198Z,2.78
2022-09-01T03:39:43.463Z,4.00
2022-09-01T03:42:12.788Z,2.47
2022-09-01T03:44:42.007Z,3.33
2022-09-01T03:47:15.305Z,2.58
2022-09-01T03:49:45.473Z,4.13
2022-09-01T03:52:13.448Z,2.88
2022-09-01T03:54:41.326Z,5.68
2022-09-01T03:57:10.101Z,2.85
2022-09-01T03:59:43.448Z,3.03
2022-09-01T04:02:15.176Z,6.40
2022-09-01T04:04:44.617Z,5.65
2022-09-01T04:07:18.997Z,3.83
2022-09-01T04:09:47.462Z,6.40
2022-09-01T04:12:15.811Z,3.60
2022-09-01T04:14:43.567Z,3.45
2022-09-01T04:24:47.272Z,2.80
2022-09-01T04:27:18.092Z,3.47
2022-09-01T04:29:47.061Z,3.75
2022-09-01T04:32:16.131Z,5.47
2022-09-01T04:34:44.032Z,5.03
2022-09-01T04:37:14.901Z,3.40
2022-09-01T04:39:51.337Z,5.03
2022-09-01T04:42:21.777Z,3.78
2022-09-01T04:44:49.778Z,3.92
2022-09-01T04:47:19.900Z,3.38
2022-09-01T04:49:49.020Z,7.13
2022-09-01T04:52:17.066Z,4.80
2022-09-01T04:54:45.251Z,6.70
2022-09-01T04:57:13.414Z,3.22
2022-09-01T04:59:43.225Z,5.70
2022-09-01T05:02:11.401Z,8.20
2022-09-01T05:04:40.397Z,4.57
2022-09-01T05:07:08.692Z,3.63
2022-09-01T05:09:38.291Z,4.95
2022-09-01T05:12:12.926Z,6.55
2022-09-01T05:14:48.463Z,6.43
2022-09-01T05:17:17.330Z,4.93
2022-09-01T05:19:48.653Z,4.03
2022-09-01T05:22:17.792Z,5.90
2022-09-01T05:24:45.954Z,5.35
2022-09-01T05:27:15.198Z,6.43
2022-09-01T05:29:43.087Z,4.63
2022-09-01T05:32:12.650Z,5.85
2022-09-01T05:34:43.908Z,3.22
2022-09-01T05:37:13.133Z,3.50
2022-09-01T05:39:45.354Z,3.38
2022-09-01T05:42:13.538Z,5.55
2022-09-01T05:44:45.118Z,4.75
2022-09-01T05:47:20.437Z,3.03
2022-09-01T05:49:49.961Z,2.60
2022-09-01T05:52:17.933Z,3.08
2022-09-01T05:54:48.034Z,3.30
2022-09-01T05:57:33.807Z,2.50
2022-09-01T06:00:02.345Z,2.22
2022-09-01T06:02:33.888Z,2.22
2022-09-01T06:05:01.652Z,2.88
2022-09-01T06:07:29.414Z,2.88
2022-09-01T06:09:57.339Z,3.28
2022-09-01T06:12:26.753Z,2.05
2022-09-01T06:14:56.086Z,3.45
2022-09-01T06:17:25.881Z,2.25
2022-09-01T06:19:56.899Z,1.83
2022-09-01T06:22:26.471Z,2.50
2022-09-01T06:24:59.561Z,1.40
2022-09-01T06:27:30.132Z,1.83
2022-09-01T06:29:58.455Z,1.35
2022-09-01T06:32:27.248Z,1.48
2022-09-01T06:34:58.287Z,1.20
2022-09-01T06:37:26.775Z,2.63
2022-09-01T06:39:54.603Z,0.55
2022-09-01T06:42:23.558Z,1.35
2022-09-01T06:44:51.818Z,1.20
2022-09-01T06:47:19.578Z,1.92
2022-09-01T06:49:47.424Z,0.95
2022-09-01T06:52:17.082Z,2.45
2022-09-01T06:54:44.990Z,2.17
2022-09-01T07:00:01.501Z,1.00
2022-09-01T07:02:30.366Z,2.95
2022-09-01T07:05:02.192Z,1.27
2022-09-01T07:10:23.205Z,2.25
2022-09-01T07:13:06.636Z,1.38
2022-09-01T07:18:26.396Z,0.95
2022-09-01T07:21:05.466Z,1.55
2022-09-01T07:24:05.931Z,1.98
2022-09-01T07:26:27.159Z,1.20
2022-09-01T07:29:04.294Z,1.40
2022-09-01T07:34:46.301Z,0.52
2022-09-01T07:45:31.281Z,1.30
2022-09-01T07:48:06.408Z,1.85
2022-09-01T07:51:09.017Z,2.20
2022-09-01T07:53:36.135Z,1.70
2022-09-01T07:56:15.817Z,1.20
2022-09-01T07:58:44.628Z,2.25
2022-09-01T08:01:17.371Z,1.75
2022-09-01T08:03:45.468Z,1.00
2022-09-01T08:06:19.457Z,0.85
2022-09-01T08:08:50.773Z,1.00
2022-09-01T08:11:40.105Z,0.88
2022-09-01T08:14:10.617Z,1.30
2022-09-01T08:16:40.072Z,2.15
2022-09-01T08:19:19.410Z,1.30
2022-09-01T08:21:47.230Z,1.10
2022-09-01T08:24:15.948Z,1.10
2022-09-01T08:26:45.153Z,1.08
2022-09-01T08:29:12.927Z,2.28
2022-09-01T08:31:40.743Z,1.70
2022-09-01T08:34:09.153Z,1.98
2022-09-01T08:36:37.709Z,0.98
2022-09-01T08:39:05.741Z,0.73
2022-09-01T08:41:47.083Z,2.97
2022-09-01T08:44:30.032Z,3.03
2022-09-01T08:47:04.542Z,1.00
2022-09-01T08:49:42.721Z,1.90
2022-09-01T08:52:21.164Z,0.90
2022-09-01T08:54:51.753Z,2.60
2022-09-01T08:57:22.594Z,0.55
2022-09-01T08:59:53.696Z,1.70
2022-09-01T09:02:36.604Z,0.80
2022-09-01T09:05:16.758Z,1.45
2022-09-01T09:08:08.288Z,0.57
2022-09-01T09:10:43.697Z,0.57
2022-09-01T09:13:19.578Z,1.13
2022-09-01T09:16:07.464Z,1.73
2022-09-01T09:18:54.840Z,0.65
2022-09-01T09:21:29.699Z,1.30
2022-09-01T09:24:04.896Z,0.90
2022-09-01T09:26:48.059Z,0.57
2022-09-01T09:29:15.814Z,1.00
2022-09-01T09:31:50.045Z,1.77
2022-09-01T09:34:32.545Z,1.05
2022-09-01T09:37:17.374Z,0.40
2022-09-01T09:39:45.375Z,1.05
2022-09-01T09:42:16.198Z,0.95
2022-09-01T09:44:46.724Z,1.38
2022-09-01T09:47:46.763Z,1.20
2022-09-01T09:50:27.194Z,1.20
2022-09-01T09:53:12.876Z,1.33
2022-09-01T09:55:56.320Z,0.55
2022-09-01T09:58:26.554Z,1.25
2022-09-01T10:01:07.905Z,2.63
2022-09-01T10:03:44.424Z,0.68
2022-09-01T10:06:14.934Z,0.98
2022-09-01T10:08:45.880Z,1.30
2022-09-01T10:11:32.843Z,1.08
2022-09-01T10:14:07.390Z,2.25
2022-09-01T10:16:39.874Z,1.08
2022-09-01T10:19:14.070Z,0.80
2022-09-01T10:21:46.329Z,0.90
2022-09-01T10:24:27.082Z,0.93
2022-09-01T10:27:01.666Z,2.58
2022-09-01T10:29:35.180Z,0.80
2022-09-01T10:32:31.837Z,2.30
2022-09-01T10:35:04.654Z,0.77
2022-09-01T10:37:33.325Z,0.60
2022-09-01T10:40:30.308Z,0.80
2022-09-01T10:43:05.403Z,0.65
2022-09-01T10:45:35.209Z,0.82
2022-09-01T10:48:31.141Z,0.70
2022-09-01T10:51:38.879Z,1.00
2022-09-01T10:54:08.543Z,1.58
2022-09-01T10:56:44.267Z,1.40
2022-09-01T10:59:38.608Z,1.45
2022-09-01T11:02:26.009Z,1.83
2022-09-01T11:05:22.426Z,1.42
2022-09-01T11:08:15.061Z,0.52
2022-09-01T11:10:53.465Z,1.25
2022-09-01T11:13:37.356Z,0.45
2022-09-01T11:16:47.925Z,1.02
2022-09-01T11:19:36.343Z,2.03
2022-09-01T11:22:15.883Z,0.77
2022-09-01T11:25:39.484Z,0.75
2022-09-01T11:28:42.835Z,0.47
2022-09-01T11:31:33.183Z,1.05
2022-09-01T11:34:10.982Z,3.30
2022-09-01T11:36:49.345Z,1.92
2022-09-01T11:39:31.024Z,1.95
2022-09-01T11:42:04.317Z,1.00
2022-09-01T11:44:42.525Z,1.35
2022-09-01T11:47:16.231Z,1.95
2022-09-01T11:49:51.909Z,1.38
2022-09-01T11:52:22.403Z,0.98
2022-09-01T11:54:51.447Z,0.75
2022-09-01T11:57:32.269Z,0.30
2022-09-01T12:00:05.903Z,1.23
2022-09-01T12:02:36.878Z,0.30
2022-09-01T12:05:26.064Z,1.45
2022-09-01T12:07:54.314Z,0.60
2022-09-01T12:10:29.363Z,1.05
2022-09-01T12:13:02.779Z,1.25
2022-09-01T12:15:34.980Z,0.85
2022-09-01T12:18:18.932Z,1.02
2022-09-01T12:23:25.435Z,1.27
2022-09-01T12:25:56.072Z,0.75
2022-09-01T12:28:25.060Z,0.82
2022-09-01T12:30:55.938Z,0.47
2022-09-01T12:33:25.731Z,0.60
2022-09-01T12:35:59.321Z,1.23
2022-09-01T12:38:31.411Z,1.33
2022-09-01T12:41:00.042Z,0.50
2022-09-01T12:43:37.074Z,0.80
2022-09-01T12:46:09.384Z,0.50
2022-09-01T12:48:40.368Z,0.73
2022-09-01T12:51:19.300Z,0.52
2022-09-01T12:53:53.890Z,0.60
2022-09-01T12:56:29.802Z,1.63
2022-09-01T12:59:14.185Z,0.55
2022-09-01T13:01:45.412Z,0.40
2022-09-01T13:04:25.666Z,0.55
2022-09-01T13:06:54.708Z,0.98
2022-09-01T13:09:22.628Z,0.63
2022-09-01T13:12:07.671Z,0.60
2022-09-01T13:14:35.952Z,0.50
2022-09-01T13:17:13.995Z,0.40
2022-09-01T13:19:42.543Z,3.40
2022-09-01T13:22:10.705Z,1.73
2022-09-01T13:24:39.643Z,1.83
2022-09-01T13:27:23.677Z,0.60
2022-09-01T13:29:52.299Z,0.63
2022-09-01T13:32:23.953Z,0.47
2022-09-01T13:34:53.883Z,1.35
2022-09-01T13:37:23.669Z,0.45
2022-09-01T13:39:51.936Z,1.67
2022-09-01T13:42:20.263Z,0.32
2022-09-01T13:44:52.364Z,0.45
2022-09-01T13:47:29.000Z,0.47
2022-09-01T13:50:14.492Z,1.38
2022-09-01T13:52:45.931Z,1.30
2022-09-01T13:55:25.640Z,3.60
2022-09-01T13:57:55.835Z,1.20
2022-09-01T14:00:26.257Z,0.75
2022-09-01T14:02:59.649Z,2.10
2022-09-01T14:05:30.250Z,0.47
2022-09-01T14:07:58.762Z,1.02
2022-09-01T14:10:28.165Z,0.85
2022-09-01T14:12:56.236Z,1.05
2022-09-01T14:15:27.315Z,2.05
2022-09-01T14:17:58.177Z,0.68
2022-09-01T14:20:31.408Z,0.90
2022-09-01T14:23:06.570Z,0.73
2022-09-01T14:25:35.799Z,1.52
2022-09-01T14:28:04.031Z,0.30
2022-09-01T14:30:33.155Z,0.95
2022-09-01T14:33:03.838Z,0.40
2022-09-01T14:35:34.305Z,0.32
2022-09-01T14:38:05.316Z,0.50
2022-09-01T14:40:33.879Z,2.78
2022-09-01T14:43:01.854Z,0.95
2022-09-01T14:45:29.951Z,1.75
2022-09-01T14:48:00.752Z,0.63
2022-09-01T14:50:32.707Z,0.85
2022-09-01T14:53:03.089Z,0.77
2022-09-01T14:55:32.780Z,0.50
2022-09-01T14:58:00.915Z,0.57
2022-09-01T15:00:32.019Z,1.00
2022-09-01T15:03:00.206Z,0.60
2022-09-01T15:05:29.467Z,0.60
2022-09-01T15:08:07.673Z,1.85
2022-09-01T15:10:36.584Z,2.58
2022-09-01T15:13:05.434Z,1.08
2022-09-01T15:15:33.730Z,1.30
2022-09-01T15:18:02.369Z,1.75
2022-09-01T15:20:47.088Z,0.40
2022-09-01T15:23:16.985Z,0.50
2022-09-01T15:25:45.157Z,1.98
2022-09-01T15:28:13.309Z,0.90
2022-09-01T15:30:42.477Z,0.50
2022-09-01T15:33:15.492Z,0.88
2022-09-01T15:35:45.512Z,1.55
2022-09-01T15:38:17.702Z,1.73
2022-09-01T15:40:50.214Z,1.42
2022-09-01T15:43:26.660Z,1.73
2022-09-01T15:45:54.488Z,1.02
2022-09-01T15:48:22.223Z,2.65
2022-09-01T15:50:51.547Z,1.27
2022-09-01T15:53:19.559Z,0.75
2022-09-01T15:55:53.206Z,1.25
2022-09-01T15:58:20.925Z,0.45
2022-09-01T16:00:48.800Z,0.60
2022-09-01T16:03:16.829Z,1.27
2022-09-01T16:05:44.742Z,1.88
2022-09-01T16:08:13.923Z,2.42
2022-09-01T16:10:42.264Z,0.50
2022-09-01T16:13:11.336Z,0.65
2022-09-01T16:15:49.787Z,0.93
2022-09-01T16:18:29.869Z,0.98
2022-09-01T16:21:04.998Z,0.52
2022-09-01T16:23:42.117Z,0.55
2022-09-01T16:26:11.792Z,0.80
2022-09-01T16:28:40.542Z,0.60
2022-09-01T16:31:13.932Z,1.90
2022-09-01T16:33:48.025Z,0.55
2022-09-01T16:36:27.739Z,54.22
2022-09-01T16:39:03.555Z,54.38
2022-09-01T16:41:43.937Z,148.07
2022-09-01T16:44:24.463Z,95.72
2022-09-01T16:47:02.819Z,127.82
2022-09-01T16:49:39.079Z,124.18
2022-09-01T16:52:16.423Z,95.32
2022-09-01T16:55:01.003Z,88.13
2022-09-01T16:57:38.181Z,100.13
2022-09-01T17:00:11.122Z,91.85
2022-09-01T17:02:50.316Z,92.95
2022-09-01T17:05:25.745Z,86.72
2022-09-01T17:07:59.025Z,42.92
2022-09-01T17:10:37.232Z,58.38
2022-09-01T17:13:17.442Z,17.10
2022-09-01T17:15:50.931Z,15.27
2022-09-01T17:18:26.113Z,7.78
2022-09-01T17:21:02.080Z,33.53
2022-09-01T17:23:38.093Z,16.95
2022-09-01T17:26:19.265Z,22.75
2022-09-01T17:28:55.242Z,23.60
2022-09-01T17:31:48.823Z,20.35
2022-09-01T17:34:29.399Z,4.90
2022-09-01T17:37:06.974Z,16.77
2022-09-01T17:39:45.060Z,19.52
2022-09-01T17:42:25.008Z,17.30
2022-09-01T17:44:56.496Z,25.95
2022-09-01T17:47:35.850Z,9.88
2022-09-01T17:50:15.191Z,5.85
2022-09-01T17:52:54.738Z,4.40
2022-09-01T17:55:36.796Z,4.05
2022-09-01T17:58:16.693Z,3.20
2022-09-01T18:00:54.441Z,3.40
2022-09-01T18:03:45.450Z,3.20
2022-09-01T18:06:22.271Z,5.13
2022-09-01T18:08:53.978Z,9.05
2022-09-01T18:11:28.006Z,5.38
2022-09-01T18:14:03.622Z,5.35
2022-09-01T18:16:33.398Z,6.00
2022-09-01T18:19:05.612Z,4.32
2022-09-01T18:21:37.347Z,3.95
2022-09-01T18:24:15.132Z,3.50
2022-09-01T18:26:48.264Z,4.00
2022-09-01T18:29:17.441Z,2.65
2022-09-01T18:32:19.007Z,3.15
2022-09-01T18:35:15.667Z,2.28
2022-09-01T18:37:58.067Z,4.65
2022-09-01T18:40:29.973Z,2.17
2022-09-01T18:43:05.923Z,2.10
2022-09-01T18:45:41.898Z,2.05
2022-09-01T18:48:40.805Z,2.70
2022-09-01T18:51:36.560Z,0.98
2022-09-01T18:54:26.681Z,0.65
2022-09-01T19:00:30.723Z,0.90
2022-09-01T19:03:08.910Z,0.90
2022-09-01T19:05:54.684Z,0.90
2022-09-01T19:08:44.714Z,1.75
2022-09-01T19:11:25.476Z,0.80
2022-09-01T19:14:06.394Z,4.35
2022-09-01T19:16:46.400Z,1.27
2022-09-01T19:19:27.115Z,2.25
2022-09-01T19:22:05.173Z,1.17
2022-09-01T19:25:08.352Z,1.48
2022-09-01T19:27:37.854Z,1.10
2022-09-01T19:30:07.788Z,1.75
2022-09-01T19:32:37.256Z,0.65
2022-09-01T19:35:11.905Z,1.10
2022-09-01T19:37:41.008Z,3.20
2022-09-01T19:40:10.844Z,0.90
2022-09-01T19:42:43.910Z,1.48
2022-09-01T19:45:17.873Z,1.05
2022-09-01T19:47:52.435Z,3.63
2022-09-01T19:50:25.283Z,1.00
2022-09-01T19:52:56.871Z,2.13
2022-09-01T19:55:31.530Z,3.45
2022-09-01T19:58:04.384Z,2.55
2022-09-01T20:00:41.919Z,2.33
2022-09-01T20:03:14.405Z,1.83
2022-09-01T20:05:49.029Z,2.58
2022-09-01T20:08:23.321Z,2.22
2022-09-01T20:10:59.812Z,1.50
2022-09-01T20:13:43.837Z,1.40
2022-09-01T20:16:24.378Z,2.05
2022-09-01T20:18:59.234Z,1.08
2022-09-01T20:21:28.397Z,0.80
2022-09-01T20:24:01.337Z,1.70
2022-09-01T20:26:32.827Z,0.70
2022-09-01T20:29:06.940Z,0.90
2022-09-01T20:31:38.455Z,1.35
2022-09-01T20:34:14.170Z,1.55
2022-09-01T20:36:47.157Z,1.80
2022-09-01T20:39:38.137Z,1.50
2022-09-01T20:42:13.852Z,1.02
2022-09-01T20:44:46.325Z,2.22
2022-09-01T20:47:14.138Z,1.52
2022-09-01T20:49:42.016Z,0.82
2022-09-01T20:52:16.399Z,1.52
2022-09-01T20:54:51.313Z,1.98
2022-09-01T20:57:32.139Z,1.88
2022-09-01T21:00:05.264Z,2.13
2022-09-01T21:02:43.073Z,1.08
2022-09-01T21:05:23.743Z,3.88
2022-09-01T21:08:01.843Z,0.80
2022-09-01T21:10:36.538Z,3.50
2022-09-01T21:13:19.757Z,1.13
2022-09-01T21:15:59.299Z,1.80
2022-09-01T21:18:45.525Z,2.80
2022-09-01T21:21:20.677Z,1.17
2022-09-01T21:23:49.898Z,0.70
2022-09-01T21:26:21.189Z,2.30
2022-09-01T21:28:54.217Z,0.70
2022-09-01T21:31:22.357Z,0.90
2022-09-01T21:33:50.885Z,1.15
2022-09-01T21:36:19.220Z,2.35
2022-09-01T21:38:47.020Z,0.95
2022-09-01T21:41:16.226Z,1.40
2022-09-01T21:43:46.834Z,1.83
2022-09-01T21:46:16.398Z,3.08
2022-09-01T21:48:44.324Z,1.40
2022-09-01T21:51:12.140Z,2.83
2022-09-01T21:53:39.972Z,1.35
2022-09-01T21:56:07.715Z,1.58
2022-09-01T21:58:39.142Z,1.73
2022-09-01T22:01:08.024Z,1.63
2022-09-01T22:03:38.390Z,1.63
2022-09-01T22:06:06.749Z,1.42
2022-09-01T22:08:34.531Z,3.80
2022-09-01T22:11:02.283Z,1.63
2022-09-01T22:13:30.162Z,2.03
2022-09-01T22:15:59.278Z,1.63
2022-09-01T22:18:27.262Z,1.60
2022-09-01T22:21:02.773Z,2.58
2022-09-01T22:23:30.918Z,3.22
2022-09-01T22:25:59.152Z,3.13
2022-09-01T22:28:27.227Z,1.52
2022-09-01T22:30:55.233Z,2.20
2022-09-01T22:33:25.132Z,2.40
2022-09-01T22:35:55.827Z,3.78
2022-09-01T22:38:24.750Z,1.70
2022-09-01T22:40:55.094Z,2.53
2022-09-01T22:43:24.136Z,2.25
2022-09-01T22:45:52.731Z,2.35
2022-09-01T22:48:23.209Z,2.20
2022-09-01T22:50:53.282Z,1.63
2022-09-01T22:53:22.941Z,3.40
2022-09-01T22:55:52.611Z,2.78
2022-09-01T22:58:21.031Z,1.35
2022-09-01T23:00:52.129Z,1.10
2022-09-01T23:03:22.362Z,5.32
2022-09-01T23:06:02.848Z,2.13
2022-09-01T23:08:31.058Z,3.95
2022-09-01T23:10:59.044Z,1.48
2022-09-01T23:13:28.369Z,3.53
2022-09-01T23:15:57.465Z,2.33
2022-09-01T23:18:26.127Z,2.28
2022-09-01T23:20:55.487Z,2.38
2022-09-01T23:23:23.424Z,2.20
2022-09-01T23:25:53.571Z,2.17
2022-09-01T23:28:21.537Z,2.30
2022-09-01T23:30:50.997Z,1.52
2022-09-01T23:33:20.628Z,2.47
2022-09-01T23:35:50.147Z,1.98
2022-09-01T23:38:21.089Z,1.80
2022-09-01T23:40:53.867Z,2.85
2022-09-01T23:43:24.309Z,2.63
2022-09-01T23:45:54.062Z,2.58
2022-09-01T23:48:22.128Z,2.38
2022-09-01T23:50:53.670Z,2.47
2022-09-01T23:53:26.243Z,3.28
2022-09-01T23:55:59.370Z,3.72
2022-09-01T23:58:29.317Z,1.90
